Walton on the Naze, United Kingdom
Current Conditions -  °F | °C
As of 8:50 AM on Wednesday 22 Oct 2014 (Local Time) from EGUW Reporting Station
Broken Clouds Broken Clouds  
Wind Chill: 40°   Ceiling: 25000
Heat Index: 46°   Visibility: 6mi
Dew Point: 39°   Wind: 14mph
Humidity: 76%   Direction: 270°W
Pressure: 30.18"   Gusts: NA
Location:  51.85°N, 1.27°E
Report Text: EGUW 220750Z 27012KT 9999 FEW015 BKN250 08/04 Q1022 BLU NOSIG
Loading
Personal Weather Stations






























Interactive Weather Map
Tropical Storm Tracking
New forecast layout! Learn more

10-Day Weather Forecast

Advertisements
Track Severe Weather on mobile